METAR UND TAF INFORMATION
EDDC 240020Z 20003KT CAVOK 19/15 Q1019

 FLUGHAFENKARTE

 RUNWAY INFORMATION
Runway 04 Runway length 8228 ft Runway width 167 ft
Runway elevation 755 ft Runway displaced threshold 0 ft Runway heading 41
Runway 22 Runway length 8228 ft Runway width 167 ft
Runway elevation 703 ft Runway displaced threshold 0 ft Runway heading 221

 AIRPORT FREQUENCIES
Type AFIS Name MUNCHEN IN Frequency 125.8 MHZ
Type APP Name MUNCHEN RA Frequency 125.625 MHZ
Type ATIS Name ATIS Frequency 118.875 MHZ
Type GND Name GND Frequency 121.9 MHZ
Type RMP Name APRON Frequency 121.75 MHZ
Type TWR Name TWR Frequency 119.7 MHZ

 AIRPORT NEAR NAVIGATION AIDS
Type DME Name Dresden Frequency 115400 KHZ
Type VOR-DME Name Dresden Frequency 114350 KHZ